sensor_id;sensor_type;location;lat;lon;timestamp;pressure;altitude;pressure_sealevel;temperature;humidity
7407;BME280;3745;56.964;24.128;2023-04-15T00:00:30;101836.72;;;10.98;98.48
7407;BME280;3745;56.964;24.128;2023-04-15T00:02:55;101840.88;;;10.96;100.00
7407;BME280;3745;56.964;24.128;2023-04-15T00:05:21;101758.44;;;10.48;100.00
7407;BME280;3745;56.964;24.128;2023-04-15T00:07:46;101847.66;;;10.97;100.00
7407;BME280;3745;56.964;24.128;2023-04-15T00:10:13;101855.19;;;10.96;100.00
7407;BME280;3745;56.964;24.128;2023-04-15T00:12:39;101854.47;;;10.98;100.00
7407;BME280;3745;56.964;24.128;2023-04-15T00:15:06;101859.63;;;11.01;100.00
7407;BME280;3745;56.964;24.128;2023-04-15T00:17:33;101760.09;;;10.46;100.00
7407;BME280;3745;56.964;24.128;2023-04-15T00:19:59;101845.94;;;10.96;100.00
7407;BME280;3745;56.964;24.128;2023-04-15T00:22:26;101859.31;;;10.92;100.00
7407;BME280;3745;56.964;24.128;2023-04-15T00:24:54;101871.97;;;10.92;100.00
7407;BME280;3745;56.964;24.128;2023-04-15T00:27:20;101821.56;;;10.70;100.00
7407;BME280;3745;56.964;24.128;2023-04-15T00:29:45;101867.56;;;10.85;100.00
7407;BME280;3745;56.964;24.128;2023-04-15T00:32:11;101797.22;;;10.47;100.00
7407;BME280;3745;56.964;24.128;2023-04-15T00:34:36;101867.56;;;10.85;100.00
7407;BME280;3745;56.964;24.128;2023-04-15T00:37:02;101872.63;;;10.85;100.00
7407;BME280;3745;56.964;24.128;2023-04-15T00:39:27;101845.03;;;10.66;100.00
7407;BME280;3745;56.964;24.128;2023-04-15T00:41:54;101868.91;;;10.74;100.00
7407;BME280;3745;56.964;24.128;2023-04-15T00:44:20;101862.25;;;10.76;100.00
7407;BME280;3745;56.964;24.128;2023-04-15T00:46:45;101862.06;;;10.70;100.00
7407;BME280;3745;56.964;24.128;2023-04-15T00:49:12;101863.75;;;10.71;100.00
7407;BME280;3745;56.964;24.128;2023-04-15T00:51:38;101847.94;;;10.50;100.00
7407;BME280;3745;56.964;24.128;2023-04-15T00:54:04;101844.59;;;10.51;100.00
7407;BME280;3745;56.964;24.128;2023-04-15T00:56:34;101793.94;;;10.22;100.00
7407;BME280;3745;56.964;24.128;2023-04-15T00:59:02;101831.06;;;10.50;100.00
7407;BME280;3745;56.964;24.128;2023-04-15T01:01:28;101865.47;;;10.72;100.00
7407;BME280;3745;56.964;24.128;2023-04-15T01:03:57;101850.19;;;10.69;100.00
7407;BME280;3745;56.964;24.128;2023-04-15T01:06:23;101846.88;;;10.70;100.00
7407;BME280;3745;56.964;24.128;2023-04-15T01:08:49;101838.25;;;10.65;100.00
7407;BME280;3745;56.964;24.128;2023-04-15T01:11:16;101866.03;;;10.90;100.00
7407;BME280;3745;56.964;24.128;2023-04-15T01:13:41;101862.50;;;10.85;100.00
7407;BME280;3745;56.964;24.128;2023-04-15T01:16:07;101835.63;;;10.62;100.00
7407;BME280;3745;56.964;24.128;2023-04-15T01:18:34;101845.72;;;10.60;100.00
7407;BME280;3745;56.964;24.128;2023-04-15T01:21:03;101860.34;;;10.69;100.00
7407;BME280;3745;56.964;24.128;2023-04-15T01:23:29;101861.88;;;10.64;100.00
7407;BME280;3745;56.964;24.128;2023-04-15T01:25:55;101808.69;;;10.36;100.00
7407;BME280;3745;56.964;24.128;2023-04-15T01:28:21;101860.56;;;10.76;100.00
7407;BME280;3745;56.964;24.128;2023-04-15T01:30:47;101854.50;;;10.71;100.00
7407;BME280;3745;56.964;24.128;2023-04-15T01:33:13;101863.66;;;10.68;100.00
7407;BME280;3745;56.964;24.128;2023-04-15T01:35:39;101868.50;;;10.60;100.00
7407;BME280;3745;56.964;24.128;2023-04-15T01:38:07;101868.44;;;10.59;100.00
7407;BME280;3745;56.964;24.128;2023-04-15T01:40:34;101867.75;;;10.63;100.00
7407;BME280;3745;56.964;24.128;2023-04-15T01:43:00;101850.47;;;10.50;99.84
7407;BME280;3745;56.964;24.128;2023-04-15T01:45:27;101843.63;;;10.47;98.82
7407;BME280;3745;56.964;24.128;2023-04-15T01:47:53;101825.53;;;10.33;98.98
7407;BME280;3745;56.964;24.128;2023-04-15T01:50:19;101813.38;;;10.23;98.92
7407;BME280;3745;56.964;24.128;2023-04-15T01:52:45;101878.66;;;10.62;99.45
7407;BME280;3745;56.964;24.128;2023-04-15T01:55:14;101876.88;;;10.58;96.86
7407;BME280;3745;56.964;24.128;2023-04-15T01:57:39;101863.19;;;10.51;96.51
7407;BME280;3745;56.964;24.128;2023-04-15T02:00:06;101703.13;;;9.50;96.24
7407;BME280;3745;56.964;24.128;2023-04-15T02:02:34;101818.84;;;10.10;95.69
7407;BME280;3745;56.964;24.128;2023-04-15T02:05:00;101876.78;;;10.55;95.32
7407;BME280;3745;56.964;24.128;2023-04-15T02:07:26;101791.72;;;10.06;95.44
7407;BME280;3745;56.964;24.128;2023-04-15T02:09:53;101863.47;;;10.33;95.52
7407;BME280;3745;56.964;24.128;2023-04-15T02:12:18;101851.16;;;10.17;94.48
7407;BME280;3745;56.964;24.128;2023-04-15T02:14:44;101879.47;;;10.32;95.44
7407;BME280;3745;56.964;24.128;2023-04-15T02:17:10;101877.03;;;10.36;94.92
7407;BME280;3745;56.964;24.128;2023-04-15T02:19:36;101872.56;;;10.28;93.78
7407;BME280;3745;56.964;24.128;2023-04-15T02:22:02;101852.13;;;10.22;92.87
7407;BME280;3745;56.964;24.128;2023-04-15T02:24:29;101891.69;;;10.46;93.84
7407;BME280;3745;56.964;24.128;2023-04-15T02:26:56;101875.34;;;10.36;91.62
7407;BME280;3745;56.964;24.128;2023-04-15T02:29:21;101838.50;;;10.17;90.80
7407;BME280;3745;56.964;24.128;2023-04-15T02:31:48;101889.97;;;10.45;90.64
7407;BME280;3745;56.964;24.128;2023-04-15T02:34:14;101846.13;;;10.19;90.45
7407;BME280;3745;56.964;24.128;2023-04-15T02:36:39;101878.00;;;10.41;89.82
7407;BME280;3745;56.964;24.128;2023-04-15T02:39:05;101850.41;;;10.21;89.54
7407;BME280;3745;56.964;24.128;2023-04-15T02:41:31;101868.19;;;10.23;88.91
7407;BME280;3745;56.964;24.128;2023-04-15T02:43:57;101880.88;;;10.24;88.72
7407;BME280;3745;56.964;24.128;2023-04-15T02:46:23;101856.56;;;10.04;88.80
7407;BME280;3745;56.964;24.128;2023-04-15T02:48:49;101882.50;;;10.22;88.63
7407;BME280;3745;56.964;24.128;2023-04-15T02:51:23;101864.38;;;10.10;88.44
7407;BME280;3745;56.964;24.128;2023-04-15T02:53:49;101881.69;;;10.23;89.02
7407;BME280;3745;56.964;24.128;2023-04-15T02:56:15;101859.50;;;10.15;89.92
7407;BME280;3745;56.964;24.128;2023-04-15T02:58:42;101888.72;;;10.32;89.00
7407;BME280;3745;56.964;24.128;2023-04-15T03:01:09;101838.06;;;10.05;88.11
7407;BME280;3745;56.964;24.128;2023-04-15T03:03:34;101860.34;;;10.15;88.92
7407;BME280;3745;56.964;24.128;2023-04-15T03:06:00;101832.81;;;9.99;87.87
7407;BME280;3745;56.964;24.128;2023-04-15T03:08:25;101891.06;;;10.27;87.77
7407;BME280;3745;56.964;24.128;2023-04-15T03:10:51;101863.16;;;9.99;88.72
7407;BME280;3745;56.964;24.128;2023-04-15T03:13:18;101890.69;;;10.15;88.94
7407;BME280;3745;56.964;24.128;2023-04-15T03:15:46;101887.25;;;10.13;87.76
7407;BME280;3745;56.964;24.128;2023-04-15T03:18:12;101905.03;;;10.15;89.05
7407;BME280;3745;56.964;24.128;2023-04-15T03:20:38;101866.59;;;10.01;88.61
7407;BME280;3745;56.964;24.128;2023-04-15T03:23:04;101899.50;;;10.26;88.78
7407;BME280;3745;56.964;24.128;2023-04-15T03:25:29;101906.34;;;10.30;88.30
7407;BME280;3745;56.964;24.128;2023-04-15T03:27:55;101902.94;;;10.28;88.45
7407;BME280;3745;56.964;24.128;2023-04-15T03:30:21;101901.28;;;10.30;88.32
7407;BME280;3745;56.964;24.128;2023-04-15T03:32:47;101873.47;;;10.05;88.79
7407;BME280;3745;56.964;24.128;2023-04-15T03:35:12;101888.00;;;10.11;87.66
7407;BME280;3745;56.964;24.128;2023-04-15T03:37:38;101854.66;;;9.97;87.49
7407;BME280;3745;56.964;24.128;2023-04-15T03:40:04;101910.91;;;10.15;86.97
7407;BME280;3745;56.964;24.128;2023-04-15T03:42:29;101872.31;;;9.96;88.12
7407;BME280;3745;56.964;24.128;2023-04-15T03:44:55;101885.50;;;10.12;88.24
7407;BME280;3745;56.964;24.128;2023-04-15T03:47:21;101894.06;;;10.14;86.52
7407;BME280;3745;56.964;24.128;2023-04-15T03:49:47;101883.69;;;10.08;87.75
7407;BME280;3745;56.964;24.128;2023-04-15T03:52:12;101887.25;;;10.13;86.51
7407;BME280;3745;56.964;24.128;2023-04-15T03:54:38;101883.78;;;10.11;87.12
7407;BME280;3745;56.964;24.128;2023-04-15T03:57:03;101899.50;;;10.26;87.21
7407;BME280;3745;56.964;24.128;2023-04-15T03:59:29;101852.94;;;9.96;86.19
7407;BME280;3745;56.964;24.128;2023-04-15T04:01:54;101898.16;;;10.38;87.09
7407;BME280;3745;56.964;24.128;2023-04-15T04:04:20;101808.53;;;9.79;86.62
7407;BME280;3745;56.964;24.128;2023-04-15T04:06:46;101895.94;;;10.21;86.36
7407;BME280;3745;56.964;24.128;2023-04-15T04:09:11;101857.44;;;10.05;84.78
7407;BME280;3745;56.964;24.128;2023-04-15T04:11:37;101916.09;;;10.18;84.62
7407;BME280;3745;56.964;24.128;2023-04-15T04:14:02;101914.28;;;10.14;85.30
7407;BME280;3745;56.964;24.128;2023-04-15T04:16:28;101845.47;;;9.74;85.45
7407;BME280;3745;56.964;24.128;2023-04-15T04:18:54;101886.72;;;9.98;84.81
7407;BME280;3745;56.964;24.128;2023-04-15T04:21:19;101914.28;;;10.14;84.88
7407;BME280;3745;56.964;24.128;2023-04-15T04:23:46;101914.75;;;10.04;84.28
7407;BME280;3745;56.964;24.128;2023-04-15T04:26:11;101910.13;;;10.16;84.88
7407;BME280;3745;56.964;24.128;2023-04-15T04:28:37;101859.09;;;9.79;83.83
7407;BME280;3745;56.964;24.128;2023-04-15T04:31:06;101912.56;;;10.13;83.45
7407;BME280;3745;56.964;24.128;2023-04-15T04:33:32;101917.63;;;10.13;83.65
7407;BME280;3745;56.964;24.128;2023-04-15T04:35:57;101917.63;;;10.13;83.65
7407;BME280;3745;56.964;24.128;2023-04-15T04:38:23;101884.91;;;9.94;84.12
7407;BME280;3745;56.964;24.128;2023-04-15T04:40:49;101857.31;;;9.75;83.91
7407;BME280;3745;56.964;24.128;2023-04-15T04:43:15;101888.44;;;9.99;86.50
7407;BME280;3745;56.964;24.128;2023-04-15T04:45:40;101869.31;;;9.82;84.83
7407;BME280;3745;56.964;24.128;2023-04-15T04:48:06;101883.00;;;9.87;84.10
7407;BME280;3745;56.964;24.128;2023-04-15T04:50:33;101902.19;;;10.07;83.51
7407;BME280;3745;56.964;24.128;2023-04-15T04:53:00;101910.69;;;10.09;83.77
7407;BME280;3745;56.964;24.128;2023-04-15T04:55:26;101922.53;;;10.10;82.79
7407;BME280;3745;56.964;24.128;2023-04-15T04:57:52;101930.94;;;10.09;85.09
7407;BME280;3745;56.964;24.128;2023-04-15T05:00:17;101898.69;;;10.02;84.78
7407;BME280;3745;56.964;24.128;2023-04-15T05:02:44;101933.00;;;10.19;83.31
7407;BME280;3745;56.964;24.128;2023-04-15T05:05:10;101926.41;;;10.24;84.12
7407;BME280;3745;56.964;24.128;2023-04-15T05:07:38;101915.84;;;10.12;83.75
7407;BME280;3745;56.964;24.128;2023-04-15T05:10:04;101924.59;;;10.20;83.72
7407;BME280;3745;56.964;24.128;2023-04-15T05:12:31;101895.31;;;10.03;83.17
7407;BME280;3745;56.964;24.128;2023-04-15T05:14:56;101911.13;;;10.21;83.27
7407;BME280;3745;56.964;24.128;2023-04-15T05:17:22;101836.88;;;9.69;83.18
7407;BME280;3745;56.964;24.128;2023-04-15T05:19:47;101933.00;;;10.19;83.70
7407;BME280;3745;56.964;24.128;2023-04-15T05:22:13;101910.69;;;10.09;83.23
7407;BME280;3745;56.964;24.128;2023-04-15T05:24:38;101892.09;;;10.07;83.25
7407;BME280;3745;56.964;24.128;2023-04-15T05:27:04;101906.06;;;10.21;83.00
7407;BME280;3745;56.964;24.128;2023-04-15T05:29:30;101924.03;;;10.29;83.19
7407;BME280;3745;56.964;24.128;2023-04-15T05:31:56;101871.94;;;10.10;85.15
7407;BME280;3745;56.964;24.128;2023-04-15T05:34:21;101927.22;;;10.49;82.32
7407;BME280;3745;56.964;24.128;2023-04-15T05:36:47;101920.03;;;10.36;82.51
7407;BME280;3745;56.964;24.128;2023-04-15T05:39:12;101918.31;;;10.34;81.83
7407;BME280;3745;56.964;24.128;2023-04-15T05:41:38;101918.09;;;10.28;82.01
7407;BME280;3745;56.964;24.128;2023-04-15T05:44:04;101887.03;;;10.07;82.81
7407;BME280;3745;56.964;24.128;2023-04-15T05:46:30;101935.72;;;10.51;82.48
7407;BME280;3745;56.964;24.128;2023-04-15T05:48:56;101830.78;;;9.89;82.79
7407;BME280;3745;56.964;24.128;2023-04-15T05:51:21;101936.00;;;10.60;82.49
7407;BME280;3745;56.964;24.128;2023-04-15T05:53:47;101950.50;;;10.65;81.77
7407;BME280;3745;56.964;24.128;2023-04-15T05:56:12;101941.06;;;10.60;81.38
7407;BME280;3745;56.964;24.128;2023-04-15T05:58:38;101928.44;;;10.61;81.89
7407;BME280;3745;56.964;24.128;2023-04-15T06:01:03;101939.72;;;10.71;81.39
7407;BME280;3745;56.964;24.128;2023-04-15T06:03:29;101914.88;;;10.59;81.14
7407;BME280;3745;56.964;24.128;2023-04-15T06:05:55;101871.19;;;10.13;81.52
7407;BME280;3745;56.964;24.128;2023-04-15T06:08:21;101944.69;;;10.41;81.16
7407;BME280;3745;56.964;24.128;2023-04-15T06:10:47;101912.75;;;10.19;82.87
7407;BME280;3745;56.964;24.128;2023-04-15T06:13:12;101950.53;;;10.40;83.84
7407;BME280;3745;56.964;24.128;2023-04-15T06:15:38;101916.06;;;10.44;82.49
7407;BME280;3745;56.964;24.128;2023-04-15T06:18:03;101920.63;;;10.54;82.72
7407;BME280;3745;56.964;24.128;2023-04-15T06:20:29;101942.88;;;10.91;82.64
7407;BME280;3745;56.964;24.128;2023-04-15T06:22:55;101947.44;;;11.02;81.71
7407;BME280;3745;56.964;24.128;2023-04-15T06:25:21;101931.97;;;11.21;82.38
7407;BME280;3745;56.964;24.128;2023-04-15T06:27:47;101916.22;;;11.31;80.86
7407;BME280;3745;56.964;24.128;2023-04-15T06:30:13;101876.78;;;11.11;79.75
7407;BME280;3745;56.964;24.128;2023-04-15T06:32:39;101911.91;;;11.59;79.58
7407;BME280;3745;56.964;24.128;2023-04-15T06:35:04;101942.78;;;11.74;80.05
7407;BME280;3745;56.964;24.128;2023-04-15T06:37:30;101924.41;;;11.82;79.70
7407;BME280;3745;56.964;24.128;2023-04-15T06:39:57;101945.16;;;11.99;78.52
7407;BME280;3745;56.964;24.128;2023-04-15T06:42:22;101953.88;;;12.10;78.15
7407;BME280;3745;56.964;24.128;2023-04-15T06:44:48;101930.09;;;12.07;77.57
7407;BME280;3745;56.964;24.128;2023-04-15T06:47:14;101946.47;;;12.18;75.71
7407;BME280;3745;56.964;24.128;2023-04-15T06:49:40;101950.53;;;12.11;77.43
7407;BME280;3745;56.964;24.128;2023-04-15T06:52:08;101777.06;;;11.09;77.11
7407;BME280;3745;56.964;24.128;2023-04-15T06:54:34;101950.53;;;12.11;76.51
7407;BME280;3745;56.964;24.128;2023-04-15T06:57:00;101952.38;;;12.18;76.40
7407;BME280;3745;56.964;24.128;2023-04-15T06:59:25;101948.88;;;12.13;75.67
7407;BME280;3745;56.964;24.128;2023-04-15T07:01:51;101952.00;;;12.03;75.36
7407;BME280;3745;56.964;24.128;2023-04-15T07:04:17;101933.41;;;12.03;75.69
7407;BME280;3745;56.964;24.128;2023-04-15T07:06:43;101954.41;;;12.31;75.70
7407;BME280;3745;56.964;24.128;2023-04-15T07:09:09;101915.09;;;12.14;74.62
7407;BME280;3745;56.964;24.128;2023-04-15T07:11:35;101946.16;;;12.38;76.20
7407;BME280;3745;56.964;24.128;2023-04-15T07:14:00;101922.09;;;12.24;75.66
7407;BME280;3745;56.964;24.128;2023-04-15T07:16:26;101958.47;;;12.58;75.48
7407;BME280;3745;56.964;24.128;2023-04-15T07:18:52;101895.88;;;12.24;75.57
7407;BME280;3745;56.964;24.128;2023-04-15T07:21:17;101946.88;;;12.69;75.13
7407;BME280;3745;56.964;24.128;2023-04-15T07:23:43;101913.88;;;12.34;73.88
7407;BME280;3745;56.964;24.128;2023-04-15T07:26:08;101961.16;;;12.64;73.94
7407;BME280;3745;56.964;24.128;2023-04-15T07:28:35;101947.31;;;12.51;73.85
7407;BME280;3745;56.964;24.128;2023-04-15T07:31:00;101966.91;;;12.58;75.60
7407;BME280;3745;56.964;24.128;2023-04-15T07:33:26;101957.53;;;12.54;74.68
7407;BME280;3745;56.964;24.128;2023-04-15T07:35:52;101931.69;;;12.36;75.28
7407;BME280;3745;56.964;24.128;2023-04-15T07:38:17;101975.25;;;12.52;75.27
7407;BME280;3745;56.964;24.128;2023-04-15T07:40:43;101971.91;;;12.54;74.33
7407;BME280;3745;56.964;24.128;2023-04-15T07:43:08;101934.91;;;12.65;74.06
7407;BME280;3745;56.964;24.128;2023-04-15T07:45:35;101945.63;;;12.89;73.77
7407;BME280;3745;56.964;24.128;2023-04-15T07:48:01;101952.63;;;12.99;73.51
7407;BME280;3745;56.964;24.128;2023-04-15T07:50:27;101953.00;;;13.14;72.91
7407;BME280;3745;56.964;24.128;2023-04-15T07:52:53;101959.88;;;13.18;72.79
7407;BME280;3745;56.964;24.128;2023-04-15T07:55:19;101956.16;;;13.04;72.70
7407;BME280;3745;56.964;24.128;2023-04-15T07:57:47;101965.78;;;13.17;72.37
7407;BME280;3745;56.964;24.128;2023-04-15T08:00:13;101971.63;;;13.13;72.29
7407;BME280;3745;56.964;24.128;2023-04-15T08:02:39;101953.19;;;13.23;72.37
7407;BME280;3745;56.964;24.128;2023-04-15T08:05:05;101950.03;;;13.33;73.49
7407;BME280;3745;56.964;24.128;2023-04-15T08:07:31;101955.34;;;13.45;72.84
7407;BME280;3745;56.964;24.128;2023-04-15T08:09:57;101964.06;;;13.56;72.25
7407;BME280;3745;56.964;24.128;2023-04-15T08:12:23;101962.47;;;13.62;72.69
7407;BME280;3745;56.964;24.128;2023-04-15T08:14:49;101923.00;;;13.38;71.22
7407;BME280;3745;56.964;24.128;2023-04-15T08:17:15;101938.41;;;13.47;72.14
7407;BME280;3745;56.964;24.128;2023-04-15T08:19:43;101949.03;;;13.69;72.73
7407;BME280;3745;56.964;24.128;2023-04-15T08:22:09;101929.53;;;13.69;72.32
7407;BME280;3745;56.964;24.128;2023-04-15T08:24:36;101947.66;;;13.86;71.01
7407;BME280;3745;56.964;24.128;2023-04-15T08:27:02;101939.03;;;13.78;71.45
7407;BME280;3745;56.964;24.128;2023-04-15T08:29:30;101938.97;;;13.75;72.35
7407;BME280;3745;56.964;24.128;2023-04-15T08:31:56;101966.28;;;13.85;71.56
7407;BME280;3745;56.964;24.128;2023-04-15T08:34:22;101892.97;;;13.63;71.74
7407;BME280;3745;56.964;24.128;2023-04-15T08:36:48;101958.06;;;13.98;71.29
7407;BME280;3745;56.964;24.128;2023-04-15T08:39:14;101821.00;;;13.23;72.01
7407;BME280;3745;56.964;24.128;2023-04-15T08:41:45;101932.81;;;13.62;72.24
7407;BME280;3745;56.964;24.128;2023-04-15T08:44:14;101964.59;;;13.84;72.78
7407;BME280;3745;56.964;24.128;2023-04-15T08:46:40;101925.25;;;13.67;72.05
7407;BME280;3745;56.964;24.128;2023-04-15T08:49:10;101965.94;;;13.67;72.45
7407;BME280;3745;56.964;24.128;2023-04-15T08:51:39;101919.00;;;13.49;74.02
7407;BME280;3745;56.964;24.128;2023-04-15T08:54:05;101948.81;;;13.56;73.54
7407;BME280;3745;56.964;24.128;2023-04-15T08:56:31;101961.25;;;13.88;73.93
7407;BME280;3745;56.964;24.128;2023-04-15T08:58:58;101950.75;;;13.70;74.25
7407;BME280;3745;56.964;24.128;2023-04-15T09:01:25;101969.56;;;13.78;74.26
7407;BME280;3745;56.964;24.128;2023-04-15T09:03:51;101972.00;;;13.73;74.58
7407;BME280;3745;56.964;24.128;2023-04-15T09:06:20;101958.53;;;13.77;74.82
7407;BME280;3745;56.964;24.128;2023-04-15T09:08:46;101923.34;;;13.55;74.91
7407;BME280;3745;56.964;24.128;2023-04-15T09:11:12;101934.22;;;13.93;75.37
7407;BME280;3745;56.964;24.128;2023-04-15T09:13:39;101898.59;;;13.93;74.08
7407;BME280;3745;56.964;24.128;2023-04-15T09:16:05;101913.91;;;13.96;73.44
7407;BME280;3745;56.964;24.128;2023-04-15T09:18:35;101961.94;;;14.24;73.25
7407;BME280;3745;56.964;24.128;2023-04-15T09:21:08;101958.50;;;14.22;75.00
7407;BME280;3745;56.964;24.128;2023-04-15T09:23:36;101946.00;;;14.34;73.49
7407;BME280;3745;56.964;24.128;2023-04-15T09:26:03;101962.81;;;14.77;73.88
7407;BME280;3745;56.964;24.128;2023-04-15T09:28:30;101926.94;;;14.63;73.90
7407;BME280;3745;56.964;24.128;2023-04-15T09:30:59;101955.41;;;14.95;72.97
7407;BME280;3745;56.964;24.128;2023-04-15T09:33:26;101933.31;;;14.94;73.90
7407;BME280;3745;56.964;24.128;2023-04-15T09:36:03;101940.16;;;14.97;71.43
7407;BME280;3745;56.964;24.128;2023-04-15T09:38:31;101930.97;;;15.11;72.24
7407;BME280;3745;56.964;24.128;2023-04-15T09:40:57;101928.50;;;15.15;71.33
7407;BME280;3745;56.964;24.128;2023-04-15T09:43:37;101950.00;;;15.34;71.34
7407;BME280;3745;56.964;24.128;2023-04-15T09:46:04;101914.09;;;15.19;71.89
7407;BME280;3745;56.964;24.128;2023-04-15T09:48:30;101903.09;;;15.23;70.48
7407;BME280;3745;56.964;24.128;2023-04-15T09:51:00;101937.56;;;15.60;69.42
7407;BME280;3745;56.964;24.128;2023-04-15T09:53:26;101921.56;;;15.75;70.10
7407;BME280;3745;56.964;24.128;2023-04-15T09:55:57;101942.38;;;16.14;70.20
7407;BME280;3745;56.964;24.128;2023-04-15T09:58:24;101913.41;;;16.12;68.92
7407;BME280;3745;56.964;24.128;2023-04-15T10:00:51;101883.59;;;16.12;68.19
7407;BME280;3745;56.964;24.128;2023-04-15T10:03:22;101888.09;;;16.39;67.67
7407;BME280;3745;56.964;24.128;2023-04-15T10:05:50;101920.59;;;16.58;67.56
7407;BME280;3745;56.964;24.128;2023-04-15T10:08:18;101908.78;;;16.72;66.46
7407;BME280;3745;56.964;24.128;2023-04-15T10:10:45;101905.53;;;17.04;65.77
7407;BME280;3745;56.964;24.128;2023-04-15T10:13:13;101910.66;;;17.07;67.33
7407;BME280;3745;56.964;24.128;2023-04-15T10:15:43;101934.50;;;17.03;63.61
7407;BME280;3745;56.964;24.128;2023-04-15T10:18:10;101922.53;;;16.96;63.97
7407;BME280;3745;56.964;24.128;2023-04-15T10:20:40;101914.06;;;17.03;62.15
7407;BME280;3745;56.964;24.128;2023-04-15T10:23:07;101872.19;;;16.79;62.98
7407;BME280;3745;56.964;24.128;2023-04-15T10:25:33;101919.16;;;17.00;61.40
7407;BME280;3745;56.964;24.128;2023-04-15T10:27:59;101927.75;;;17.17;62.24
7407;BME280;3745;56.964;24.128;2023-04-15T10:30:25;101923.59;;;17.42;62.86
7407;BME280;3745;56.964;24.128;2023-04-15T10:32:51;101912.44;;;17.32;61.08
7407;BME280;3745;56.964;24.128;2023-04-15T10:35:18;101911.72;;;17.56;59.99
7407;BME280;3745;56.964;24.128;2023-04-15T10:37:45;101911.69;;;17.50;60.53
7407;BME280;3745;56.964;24.128;2023-04-15T10:40:25;101915.91;;;17.40;59.07
7407;BME280;3745;56.964;24.128;2023-04-15T10:42:55;101920.09;;;17.20;62.23
7407;BME280;3745;56.964;24.128;2023-04-15T10:45:21;101909.91;;;17.30;61.53
7407;BME280;3745;56.964;24.128;2023-04-15T10:47:56;101880.03;;;17.22;61.79
7407;BME280;3745;56.964;24.128;2023-04-15T10:50:25;101914.31;;;17.66;60.79
7407;BME280;3745;56.964;24.128;2023-04-15T10:52:51;101909.22;;;17.87;59.12
7407;BME280;3745;56.964;24.128;2023-04-15T10:55:22;101914.34;;;17.97;59.25
7407;BME280;3745;56.964;24.128;2023-04-15T10:57:53;101854.56;;;17.76;59.15
7407;BME280;3745;56.964;24.128;2023-04-15T11:00:24;101917.78;;;18.23;57.41
7407;BME280;3745;56.964;24.128;2023-04-15T11:02:58;101908.38;;;18.35;57.70
7407;BME280;3745;56.964;24.128;2023-04-15T11:05:50;101904.97;;;18.59;57.80
7407;BME280;3745;56.964;24.128;2023-04-15T11:08:16;101904.13;;;18.60;58.27
7407;BME280;3745;56.964;24.128;2023-04-15T11:15:48;101885.31;;;18.52;56.91
7407;BME280;3745;56.964;24.128;2023-04-15T11:18:22;101903.25;;;18.48;56.12
7407;BME280;3745;56.964;24.128;2023-04-15T11:20:53;101866.50;;;18.32;56.18
7407;BME280;3745;56.964;24.128;2023-04-15T11:23:32;101821.28;;;18.05;57.18
7407;BME280;3745;56.964;24.128;2023-04-15T11:26:00;101904.13;;;18.51;56.39
7407;BME280;3745;56.964;24.128;2023-04-15T11:28:28;101883.59;;;18.39;56.25
7407;BME280;3745;56.964;24.128;2023-04-15T11:30:55;101864.81;;;18.04;56.47
7407;BME280;3745;56.964;24.128;2023-04-15T11:33:22;101832.38;;;17.72;57.10
7407;BME280;3745;56.964;24.128;2023-04-15T11:35:52;101869.94;;;18.07;57.31
7407;BME280;3745;56.964;24.128;2023-04-15T11:38:19;101885.31;;;17.85;56.97
7407;BME280;3745;56.964;24.128;2023-04-15T11:40:44;101868.22;;;17.94;57.83
7407;BME280;3745;56.964;24.128;2023-04-15T11:43:14;101885.28;;;18.34;56.01
7407;BME280;3745;56.964;24.128;2023-04-15T11:45:51;101847.75;;;18.21;58.78
7407;BME280;3745;56.964;24.128;2023-04-15T11:48:18;101863.94;;;18.58;56.52
7407;BME280;3745;56.964;24.128;2023-04-15T11:50:44;101871.63;;;18.62;55.22
7407;BME280;3745;56.964;24.128;2023-04-15T11:53:12;101855.34;;;18.69;55.16
7407;BME280;3745;56.964;24.128;2023-04-15T11:55:45;101877.44;;;19.11;53.97
7407;BME280;3745;56.964;24.128;2023-04-15T11:58:19;101881.66;;;19.17;53.62
7407;BME280;3745;56.964;24.128;2023-04-15T12:00:52;101864.47;;;19.37;54.34
7407;BME280;3745;56.964;24.128;2023-04-15T12:03:50;101838.84;;;19.28;52.61
7407;BME280;3745;56.964;24.128;2023-04-15T12:06:17;101870.53;;;19.22;53.52
7407;BME280;3745;56.964;24.128;2023-04-15T12:11:29;101852.53;;;19.31;53.49
7407;BME280;3745;56.964;24.128;2023-04-15T12:16:28;101854.16;;;19.49;53.56
7407;BME280;3745;56.964;24.128;2023-04-15T12:18:56;101848.91;;;19.64;53.35
7407;BME280;3745;56.964;24.128;2023-04-15T12:21:23;101837.81;;;19.62;53.08
7407;BME280;3745;56.964;24.128;2023-04-15T12:23:54;101809.69;;;19.38;53.74
7407;BME280;3745;56.964;24.128;2023-04-15T12:26:28;101858.28;;;19.70;52.05
7407;BME280;3745;56.964;24.128;2023-04-15T12:29:05;101847.28;;;19.51;51.67
7407;BME280;3745;56.964;24.128;2023-04-15T12:31:33;101856.69;;;19.52;52.27
7407;BME280;3745;56.964;24.128;2023-04-15T12:34:00;101838.91;;;19.19;51.12
7407;BME280;3745;56.964;24.128;2023-04-15T12:36:27;101828.53;;;19.34;51.82
7407;BME280;3745;56.964;24.128;2023-04-15T12:38:53;101842.31;;;19.21;51.90
7407;BME280;3745;56.964;24.128;2023-04-15T12:41:19;101830.41;;;19.02;51.85
7407;BME280;3745;56.964;24.128;2023-04-15T12:43:46;101839.00;;;19.01;52.11
7407;BME280;3745;56.964;24.128;2023-04-15T12:46:12;101826.22;;;18.91;51.14
7407;BME280;3745;56.964;24.128;2023-04-15T12:48:39;101857.88;;;18.81;52.29
7407;BME280;3745;56.964;24.128;2023-04-15T12:51:04;101851.00;;;18.92;52.60
7407;BME280;3745;56.964;24.128;2023-04-15T12:53:30;101850.94;;;19.02;52.93
7407;BME280;3745;56.964;24.128;2023-04-15T12:55:56;101799.78;;;18.71;52.37
7407;BME280;3745;56.964;24.128;2023-04-15T12:58:22;101852.69;;;19.00;53.14
7407;BME280;3745;56.964;24.128;2023-04-15T13:00:48;101840.84;;;18.62;53.50
7407;BME280;3745;56.964;24.128;2023-04-15T13:03:16;101854.44;;;18.88;52.95
7407;BME280;3745;56.964;24.128;2023-04-15T13:05:42;101852.75;;;18.84;52.98
7407;BME280;3745;56.964;24.128;2023-04-15T13:08:07;101836.47;;;18.90;52.65